Time;durP1;ratioP1;P1;durP2;ratioP2;P2;SDS_P1;SDS_P2;PMS_P1;PMS_P2;Temp;Humidity;BMP_temperature;BMP_pressure;BME280_temperature;BME280_humidity;BME280_pressure;Samples;Min_cycle;Max_cycle;Signal;HPM_P1;HPM_P2
2021/12/29 00:00:19;;;;;;;106.07;25.60;;;6.40;99.90;;;;;;5050070;28;20057;-69
2021/12/29 00:02:45;;;;;;;119.32;27.08;;;6.40;99.90;;;;;;5033974;28;20107;-69
2021/12/29 00:05:11;;;;;;;95.85;22.70;;;6.40;99.90;;;;;;5054791;28;20045;-68
2021/12/29 00:07:36;;;;;;;88.45;22.77;;;6.40;99.90;;;;;;5054440;28;20053;-69
2021/12/29 00:10:04;;;;;;;65.38;20.38;;;6.30;99.90;;;;;;5046661;28;20044;-69
2021/12/29 00:12:34;;;;;;;104.20;22.50;;;6.30;99.90;;;;;;5049887;28;20049;-69
2021/12/29 00:15:00;;;;;;;54.20;17.05;;;6.30;99.90;;;;;;5045417;28;20052;-69
2021/12/29 00:17:26;;;;;;;48.30;17.15;;;6.20;99.90;;;;;;5054668;28;20041;-68
2021/12/29 00:19:51;;;;;;;63.13;18.17;;;6.30;99.90;;;;;;5054228;28;20056;-69
2021/12/29 00:22:17;;;;;;;70.00;18.98;;;6.30;99.90;;;;;;5053282;28;20052;-68
2021/12/29 00:24:45;;;;;;;64.38;17.52;;;6.30;99.90;;;;;;5054436;28;20116;-69
2021/12/29 00:27:10;;;;;;;62.70;16.83;;;6.30;99.90;;;;;;5053289;28;20425;-70
2021/12/29 00:29:36;;;;;;;70.70;18.00;;;6.30;99.90;;;;;;5054453;28;20052;-69
2021/12/29 00:32:02;;;;;;;46.42;14.93;;;6.20;99.90;;;;;;5054411;28;20067;-68
2021/12/29 00:34:27;;;;;;;57.80;16.80;;;6.20;99.90;;;;;;5051919;28;20542;-69
2021/12/29 00:36:53;;;;;;;54.65;15.73;;;6.30;99.90;;;;;;5052300;28;20120;-69
2021/12/29 00:39:19;;;;;;;60.42;17.20;;;6.20;99.90;;;;;;5038882;28;20038;-70
2021/12/29 00:41:44;;;;;;;56.20;16.27;;;6.20;99.90;;;;;;5033665;28;20081;-68
2021/12/29 00:44:10;;;;;;;75.28;17.42;;;6.20;99.90;;;;;;5033759;28;20052;-69
2021/12/29 00:46:39;;;;;;;71.68;17.55;;;6.20;99.90;;;;;;5033987;28;20123;-69
2021/12/29 00:49:08;;;;;;;89.55;20.08;;;6.30;99.90;;;;;;5050716;28;20092;-68
2021/12/29 00:51:35;;;;;;;76.85;17.95;;;6.20;99.90;;;;;;5052491;28;20079;-69
2021/12/29 00:54:01;;;;;;;68.57;17.00;;;6.30;99.90;;;;;;5053788;28;20131;-68
2021/12/29 00:56:26;;;;;;;95.53;19.98;;;6.20;99.90;;;;;;5053761;28;20383;-70
2021/12/29 00:58:52;;;;;;;79.07;18.52;;;6.30;99.90;;;;;;5035699;28;20055;-69
2021/12/29 01:01:18;;;;;;;85.82;18.48;;;6.30;99.90;;;;;;5053593;28;20053;-69
2021/12/29 01:03:44;;;;;;;105.20;20.33;;;6.50;99.90;;;;;;5052907;28;20179;-68
2021/12/29 01:06:10;;;;;;;73.65;17.10;;;6.20;99.90;;;;;;5035587;28;20127;-69
2021/12/29 01:08:36;;;;;;;92.55;18.95;;;6.30;99.90;;;;;;5051890;28;20060;-71
2021/12/29 01:11:03;;;;;;;94.30;19.48;;;6.30;99.90;;;;;;5052535;28;20775;-69
2021/12/29 01:13:33;;;;;;;112.22;19.45;;;6.30;99.90;;;;;;5052338;28;20056;-70
2021/12/29 01:18:34;;;;;;;111.57;20.50;;;6.30;99.90;;;;;;5033740;28;20054;-69
2021/12/29 01:21:00;;;;;;;128.80;22.02;;;6.30;99.90;;;;;;5033677;28;20140;-69
2021/12/29 01:23:26;;;;;;;120.32;21.75;;;6.30;99.90;;;;;;5031878;28;20052;-70
2021/12/29 01:25:52;;;;;;;102.45;21.58;;;6.30;99.90;;;;;;5033200;28;20054;-68
2021/12/29 01:28:18;;;;;;;94.47;18.88;;;6.40;99.90;;;;;;5040531;28;20056;-69
2021/12/29 01:30:44;;;;;;;105.25;23.05;;;6.40;99.90;;;;;;5051706;28;20041;-70
2021/12/29 01:33:10;;;;;;;88.35;20.80;;;6.40;99.90;;;;;;5052248;28;20099;-69
2021/12/29 01:35:40;;;;;;;104.95;23.35;;;6.40;99.90;;;;;;5053193;28;20051;-68
2021/12/29 01:38:07;;;;;;;121.00;24.15;;;6.50;99.90;;;;;;5040876;28;20049;-68
2021/12/29 01:40:35;;;;;;;169.33;26.07;;;6.50;99.90;;;;;;5031780;28;20046;-69
2021/12/29 01:43:05;;;;;;;111.25;23.73;;;6.50;99.90;;;;;;5042873;28;20060;-68
2021/12/29 01:45:31;;;;;;;102.15;21.30;;;6.50;99.90;;;;;;5052943;28;20041;-70
2021/12/29 01:47:58;;;;;;;151.13;25.85;;;6.50;99.90;;;;;;5050471;28;20464;-67
2021/12/29 01:50:24;;;;;;;115.32;23.23;;;6.50;99.90;;;;;;5051987;28;20049;-70
2021/12/29 01:52:55;;;;;;;165.95;26.02;;;6.50;99.90;;;;;;5052953;28;20124;-67
2021/12/29 01:55:25;;;;;;;135.98;25.00;;;6.50;99.90;;;;;;5052948;28;20056;-68
2021/12/29 01:57:52;;;;;;;143.85;24.50;;;6.50;99.90;;;;;;5052252;28;20084;-69
2021/12/29 02:00:21;;;;;;;147.10;25.40;;;6.60;99.90;;;;;;5052916;28;20064;-67
2021/12/29 02:02:46;;;;;;;145.80;25.75;;;6.50;99.90;;;;;;5052343;28;20044;-67
2021/12/29 02:05:12;;;;;;;163.85;27.08;;;6.50;99.90;;;;;;5050885;28;20044;-68
2021/12/29 02:07:38;;;;;;;225.05;31.15;;;6.50;99.90;;;;;;5050301;28;20052;-69
2021/12/29 02:10:05;;;;;;;132.38;26.65;;;6.50;99.90;;;;;;5051968;28;20049;-69
2021/12/29 02:12:32;;;;;;;169.63;28.67;;;6.50;99.90;;;;;;5052041;28;20048;-68
2021/12/29 02:14:57;;;;;;;118.57;21.95;;;6.50;99.90;;;;;;5051542;28;20067;-69
2021/12/29 02:17:23;;;;;;;155.82;27.33;;;6.60;99.90;;;;;;5051907;28;20037;-67
2021/12/29 02:19:49;;;;;;;166.25;28.52;;;6.60;99.90;;;;;;5051021;28;20150;-68
2021/12/29 02:22:39;;;;;;;199.27;28.63;;;6.70;99.90;;;;;;5051775;28;20051;-68
2021/12/29 02:27:54;;;;;;;114.75;25.20;;;6.50;99.90;;;;;;5050704;28;20153;-68
2021/12/29 02:30:22;;;;;;;134.82;24.58;;;6.60;99.90;;;;;;5050421;28;20513;-69
2021/12/29 02:32:49;;;;;;;131.35;24.60;;;6.60;99.90;;;;;;5051578;28;20407;-69
2021/12/29 02:35:17;;;;;;;179.45;27.25;;;6.60;99.90;;;;;;5051880;28;20077;-69
2021/12/29 02:37:43;;;;;;;94.68;19.73;;;6.60;99.90;;;;;;5051120;28;20098;-69
2021/12/29 02:40:10;;;;;;;92.78;17.75;;;6.70;99.90;;;;;;5049797;28;20037;-67
2021/12/29 02:42:41;;;;;;;123.27;22.27;;;6.60;99.90;;;;;;5050862;28;20486;-68
2021/12/29 02:45:14;;;;;;;87.90;18.15;;;6.60;99.90;;;;;;5051653;28;20076;-68
2021/12/29 02:47:40;;;;;;;120.20;19.85;;;6.60;99.90;;;;;;5044074;28;20045;-68
2021/12/29 02:50:06;;;;;;;65.93;15.60;;;6.60;99.90;;;;;;5049510;28;20050;-67
2021/12/29 02:52:32;;;;;;;69.95;16.00;;;6.60;99.90;;;;;;5039561;28;20038;-68
2021/12/29 02:54:57;;;;;;;102.53;17.60;;;6.60;99.90;;;;;;5030615;28;20430;-68
2021/12/29 02:57:23;;;;;;;80.70;15.90;;;6.60;99.90;;;;;;5033679;28;20052;-68
2021/12/29 02:59:49;;;;;;;100.40;18.65;;;6.60;99.90;;;;;;5054613;28;20067;-69
2021/12/29 03:02:14;;;;;;;88.90;18.27;;;6.60;99.90;;;;;;5055819;28;20033;-68
2021/12/29 03:04:43;;;;;;;105.35;19.13;;;6.60;99.90;;;;;;5054837;28;20086;-68
2021/12/29 03:07:09;;;;;;;90.75;18.17;;;6.70;99.90;;;;;;5054431;28;20083;-68
2021/12/29 03:09:34;;;;;;;88.68;18.77;;;6.70;99.90;;;;;;5055583;28;20068;-70
2021/12/29 03:12:00;;;;;;;90.80;17.73;;;6.70;99.90;;;;;;5055544;28;20227;-67
2021/12/29 03:14:26;;;;;;;71.90;16.42;;;6.70;99.90;;;;;;5052566;28;20041;-70
2021/12/29 03:16:52;;;;;;;87.28;16.98;;;6.80;99.90;;;;;;5055547;28;20090;-68
2021/12/29 03:19:18;;;;;;;88.38;18.88;;;6.80;99.90;;;;;;5054114;28;20045;-67
2021/12/29 03:21:47;;;;;;;98.75;18.90;;;6.80;99.90;;;;;;5055994;28;20525;-68
2021/12/29 03:24:14;;;;;;;104.68;19.88;;;6.80;99.90;;;;;;5055366;28;20397;-69
2021/12/29 03:26:40;;;;;;;105.87;20.03;;;6.80;99.90;;;;;;5054565;28;20041;-69
2021/12/29 03:29:06;;;;;;;105.47;20.15;;;6.90;99.90;;;;;;5055028;28;20382;-69
2021/12/29 03:31:37;;;;;;;122.90;21.33;;;6.90;99.90;;;;;;5056407;28;20044;-69
2021/12/29 03:34:03;;;;;;;88.38;18.85;;;6.90;99.90;;;;;;5037695;28;20040;-68
2021/12/29 03:36:28;;;;;;;99.45;21.92;;;6.80;99.90;;;;;;5054677;28;20045;-69
2021/12/29 03:38:54;;;;;;;120.80;23.75;;;6.00;99.90;;;;;;5055486;28;20497;-67
2021/12/29 03:41:20;;;;;;;115.65;24.13;;;6.90;99.90;;;;;;5053267;28;20500;-68
2021/12/29 03:43:47;;;;;;;116.95;24.17;;;6.90;99.90;;;;;;5054158;28;20037;-69
2021/12/29 03:46:13;;;;;;;109.95;24.00;;;6.90;99.90;;;;;;5052899;28;20049;-70
2021/12/29 03:48:43;;;;;;;126.18;25.92;;;6.90;99.90;;;;;;5054027;28;20446;-68
2021/12/29 03:51:10;;;;;;;131.27;26.45;;;6.90;99.90;;;;;;5054413;28;20053;-69
2021/12/29 03:53:36;;;;;;;130.25;26.88;;;6.90;99.90;;;;;;5052313;28;20399;-69
2021/12/29 03:56:02;;;;;;;110.95;25.48;;;6.90;99.90;;;;;;5054576;28;20045;-69
2021/12/29 03:58:29;;;;;;;110.45;26.83;;;6.90;99.90;;;;;;5054540;28;20045;-67
2021/12/29 04:01:02;;;;;;;136.63;27.75;;;7.00;99.90;;;;;;5050161;28;20051;-69
2021/12/29 04:03:28;;;;;;;108.68;24.08;;;7.00;99.90;;;;;;5035027;28;20052;-68
2021/12/29 04:05:54;;;;;;;118.47;25.73;;;7.00;99.90;;;;;;5034369;28;20041;-68
2021/12/29 04:08:20;;;;;;;130.32;26.70;;;7.00;99.90;;;;;;5044541;28;20044;-68
2021/12/29 04:10:45;;;;;;;142.38;26.67;;;7.00;99.90;;;;;;5051639;28;20048;-69
2021/12/29 04:13:11;;;;;;;119.00;24.58;;;7.00;99.90;;;;;;5053402;28;20041;-68
2021/12/29 04:15:38;;;;;;;101.18;23.92;;;7.00;99.90;;;;;;5051752;28;20049;-67
2021/12/29 04:18:14;;;;;;;110.78;23.80;;;7.20;99.90;;;;;;5053910;28;20064;-69
2021/12/29 04:20:57;;;;;;;123.47;25.10;;;7.20;99.90;;;;;;5053911;28;20581;-68
2021/12/29 04:23:32;;;;;;;132.57;26.13;;;7.10;99.90;;;;;;5052530;28;20053;-69
2021/12/29 04:26:01;;;;;;;126.85;24.67;;;7.00;99.90;;;;;;5053804;28;20041;-70
2021/12/29 04:28:28;;;;;;;154.27;24.90;;;7.00;99.90;;;;;;5052805;28;20487;-67
2021/12/29 04:31:05;;;;;;;122.32;23.23;;;7.00;99.90;;;;;;5053001;28;20521;-69
2021/12/29 04:33:31;;;;;;;140.15;25.42;;;7.00;99.90;;;;;;5053546;28;20060;-68
2021/12/29 04:35:57;;;;;;;91.03;23.23;;;7.00;99.90;;;;;;5054038;28;20049;-69
2021/12/29 04:38:24;;;;;;;119.05;25.20;;;7.00;99.90;;;;;;5053790;28;20048;-69
2021/12/29 04:40:52;;;;;;;94.25;23.33;;;7.10;99.90;;;;;;5053283;28;20406;-69
2021/12/29 04:43:19;;;;;;;114.15;24.17;;;7.10;99.90;;;;;;5053821;28;20487;-68
2021/12/29 04:45:45;;;;;;;83.75;24.20;;;7.10;99.90;;;;;;5053602;28;20124;-69
2021/12/29 04:48:13;;;;;;;143.23;27.13;;;7.00;99.90;;;;;;5052746;28;20095;-69
2021/12/29 04:50:53;;;;;;;116.40;27.67;;;7.00;99.90;;;;;;5053462;28;20136;-70
2021/12/29 04:53:22;;;;;;;118.45;27.75;;;7.00;99.90;;;;;;5032318;28;20033;-68
2021/12/29 04:55:49;;;;;;;121.70;28.67;;;7.50;99.90;;;;;;5033391;28;20056;-69
2021/12/29 04:58:16;;;;;;;120.83;29.57;;;7.10;99.90;;;;;;5033713;28;20049;-69
2021/12/29 05:00:46;;;;;;;103.68;25.42;;;7.00;99.90;;;;;;5039632;28;20155;-68
2021/12/29 05:03:12;;;;;;;120.78;27.17;;;7.00;99.90;;;;;;5045184;28;20045;-68
2021/12/29 05:10:47;;;;;;;129.40;29.05;;;7.10;99.90;;;;;;5052738;28;20532;-69
2021/12/29 05:13:14;;;;;;;112.82;26.35;;;7.20;99.90;;;;;;5050571;28;20049;-68
2021/12/29 05:15:40;;;;;;;124.28;29.45;;;7.10;99.90;;;;;;5050718;28;20456;-69
2021/12/29 05:18:06;;;;;;;119.07;28.60;;;7.10;99.90;;;;;;5052575;28;20051;-68
2021/12/29 05:20:32;;;;;;;128.88;29.25;;;7.10;99.90;;;;;;5052600;28;20557;-68
2021/12/29 05:22:59;;;;;;;123.32;28.08;;;7.00;99.90;;;;;;5053159;28;20049;-68
2021/12/29 05:25:26;;;;;;;131.38;29.15;;;7.10;99.90;;;;;;5050443;28;20037;-68
2021/12/29 05:27:52;;;;;;;115.87;28.43;;;7.00;99.90;;;;;;5051115;28;20067;-69
2021/12/29 05:30:19;;;;;;;115.88;27.33;;;7.00;99.90;;;;;;5044473;28;20053;-69
2021/12/29 05:32:46;;;;;;;105.68;26.35;;;7.00;99.90;;;;;;5031468;28;20496;-68
2021/12/29 05:35:12;;;;;;;124.85;28.60;;;7.10;99.90;;;;;;5063352;28;20053;-69
2021/12/29 05:37:39;;;;;;;116.40;27.10;;;7.10;99.90;;;;;;5052371;28;20160;-67
2021/12/29 05:40:07;;;;;;;113.68;26.38;;;7.10;99.90;;;;;;5051771;28;20324;-69
2021/12/29 05:42:36;;;;;;;152.32;29.20;;;7.20;99.90;;;;;;5051774;28;20552;-69
2021/12/29 05:45:08;;;;;;;117.57;26.60;;;7.20;99.90;;;;;;5050844;28;20467;-68
2021/12/29 05:47:34;;;;;;;104.47;25.63;;;7.10;99.90;;;;;;5052196;28;20509;-69
2021/12/29 05:49:59;;;;;;;99.47;28.50;;;7.10;99.90;;;;;;5067669;28;20120;-69
2021/12/29 05:52:25;;;;;;;114.45;27.52;;;7.20;99.90;;;;;;5052440;28;20044;-69
2021/12/29 05:54:51;;;;;;;115.15;27.52;;;7.20;99.90;;;;;;5051610;28;20060;-70
2021/12/29 05:57:17;;;;;;;124.88;28.98;;;7.20;99.90;;;;;;5052383;28;20044;-70
2021/12/29 05:59:43;;;;;;;148.05;29.35;;;7.20;99.90;;;;;;5051310;28;20074;-69
2021/12/29 06:02:09;;;;;;;99.05;26.08;;;7.20;99.90;;;;;;5051193;28;20045;-69
2021/12/29 06:04:34;;;;;;;103.47;27.42;;;7.20;99.90;;;;;;5051633;28;20479;-70
2021/12/29 06:07:00;;;;;;;98.43;26.15;;;7.10;99.90;;;;;;5052360;28;20064;-68
2021/12/29 06:09:26;;;;;;;117.07;27.23;;;7.10;99.90;;;;;;5051320;28;20387;-68
2021/12/29 06:11:52;;;;;;;115.53;28.02;;;7.10;99.90;;;;;;5052498;28;20056;-67
2021/12/29 06:14:17;;;;;;;117.70;28.10;;;7.10;99.90;;;;;;5052501;28;20053;-70
2021/12/29 06:16:43;;;;;;;95.22;26.77;;;7.20;99.90;;;;;;5050258;28;20535;-68
2021/12/29 06:19:09;;;;;;;94.43;26.80;;;7.10;99.90;;;;;;5050260;28;20119;-67
2021/12/29 06:21:34;;;;;;;94.45;26.63;;;7.10;99.90;;;;;;5050109;28;20075;-68
2021/12/29 06:24:00;;;;;;;109.10;28.50;;;7.10;99.90;;;;;;5051894;28;20060;-71
2021/12/29 06:26:25;;;;;;;117.55;30.10;;;7.20;99.90;;;;;;5050686;28;20143;-68
2021/12/29 06:28:51;;;;;;;107.70;28.60;;;7.10;99.90;;;;;;5051612;28;20471;-68
2021/12/29 06:31:17;;;;;;;86.57;25.02;;;7.20;99.90;;;;;;5050747;28;20060;-69
2021/12/29 06:33:43;;;;;;;97.05;28.70;;;7.10;99.90;;;;;;5050285;28;20045;-68
2021/12/29 06:36:08;;;;;;;117.05;29.55;;;7.20;99.90;;;;;;5052026;28;20076;-68
2021/12/29 06:38:34;;;;;;;124.57;29.15;;;7.20;99.90;;;;;;5050540;28;20080;-68
2021/12/29 06:41:00;;;;;;;86.88;25.60;;;7.20;99.90;;;;;;5051332;28;20037;-68
2021/12/29 06:43:26;;;;;;;91.15;26.35;;;7.20;99.90;;;;;;5051629;28;20079;-68
2021/12/29 06:45:52;;;;;;;124.75;29.83;;;7.20;99.90;;;;;;5049191;28;20427;-68
2021/12/29 06:48:18;;;;;;;111.38;27.42;;;7.20;99.90;;;;;;5050084;28;20045;-69
2021/12/29 06:50:44;;;;;;;103.32;28.35;;;7.20;99.90;;;;;;5033655;28;20191;-69
2021/12/29 06:53:11;;;;;;;112.68;28.33;;;7.20;99.90;;;;;;5050456;28;20037;-67
2021/12/29 06:55:37;;;;;;;124.85;28.83;;;7.20;99.90;;;;;;5051606;28;20432;-69
2021/12/29 06:58:02;;;;;;;159.88;30.40;;;7.20;99.90;;;;;;5051451;28;20108;-68
2021/12/29 07:00:28;;;;;;;140.38;30.00;;;7.20;99.90;;;;;;5038267;28;20517;-67
2021/12/29 07:02:58;;;;;;;131.23;28.55;;;7.20;99.90;;;;;;5050181;28;20057;-69
2021/12/29 07:05:23;;;;;;;137.30;30.13;;;7.20;99.90;;;;;;5033073;28;20095;-68
2021/12/29 07:07:52;;;;;;;134.52;28.88;;;7.20;99.90;;;;;;5050451;28;20045;-69
2021/12/29 07:10:21;;;;;;;164.00;30.08;;;7.20;99.90;;;;;;5051315;28;20049;-70
2021/12/29 07:12:47;;;;;;;128.13;29.25;;;7.20;99.90;;;;;;5050328;28;20400;-69
2021/12/29 07:15:16;;;;;;;137.18;27.92;;;7.20;99.90;;;;;;5050596;28;20583;-68
2021/12/29 07:17:42;;;;;;;144.30;30.38;;;7.20;99.90;;;;;;5050414;28;20418;-68
2021/12/29 07:20:08;;;;;;;207.35;34.25;;;7.20;99.90;;;;;;5051215;28;20053;-69
2021/12/29 07:22:34;;;;;;;134.27;29.25;;;7.20;99.90;;;;;;5049905;28;20071;-69
2021/12/29 07:25:00;;;;;;;145.18;29.92;;;7.20;99.90;;;;;;5049090;28;20464;-68
2021/12/29 07:27:27;;;;;;;139.77;29.48;;;7.30;99.90;;;;;;5051050;28;20305;-68
2021/12/29 07:29:53;;;;;;;166.85;30.90;;;7.30;99.90;;;;;;5050853;28;20465;-68
2021/12/29 07:32:21;;;;;;;144.90;30.17;;;7.20;99.90;;;;;;5050559;28;20040;-68
2021/12/29 07:34:47;;;;;;;206.57;32.72;;;7.20;99.90;;;;;;5050971;28;20064;-69
2021/12/29 07:37:14;;;;;;;152.55;29.33;;;7.20;99.90;;;;;;5049975;28;20037;-68
2021/12/29 07:39:43;;;;;;;197.52;32.10;;;7.20;99.90;;;;;;5049812;28;20136;-69
2021/12/29 07:42:08;;;;;;;173.95;31.20;;;7.20;99.90;;;;;;5048013;28;20124;-70
2021/12/29 07:44:45;;;;;;;129.23;27.27;;;7.20;99.90;;;;;;5033635;28;20049;-70
2021/12/29 07:47:13;;;;;;;147.13;28.60;;;7.30;99.90;;;;;;5053444;28;20053;-69
2021/12/29 07:49:39;;;;;;;132.95;28.65;;;7.20;99.90;;;;;;5052763;28;20104;-68
2021/12/29 07:52:05;;;;;;;179.43;31.13;;;7.20;99.90;;;;;;5053354;28;20041;-68
2021/12/29 07:54:34;;;;;;;124.32;27.08;;;7.20;99.90;;;;;;5053024;28;20069;-69
2021/12/29 07:56:59;;;;;;;136.60;28.40;;;7.30;99.90;;;;;;5051821;28;20083;-68
2021/12/29 07:59:25;;;;;;;140.30;29.05;;;7.30;99.90;;;;;;5052936;28;20186;-67
2021/12/29 08:01:51;;;;;;;128.73;26.65;;;7.20;99.90;;;;;;5053160;28;20037;-69
2021/12/29 08:04:21;;;;;;;125.05;26.13;;;7.30;99.90;;;;;;5052892;28;20051;-69
2021/12/29 08:06:47;;;;;;;120.55;26.63;;;7.30;99.90;;;;;;5036697;28;20045;-68
2021/12/29 08:09:12;;;;;;;152.10;27.65;;;7.30;99.90;;;;;;5052322;28;20123;-69
2021/12/29 08:11:39;;;;;;;146.38;27.13;;;7.30;99.90;;;;;;5053855;28;20127;-69
2021/12/29 08:14:07;;;;;;;131.18;26.90;;;7.30;99.90;;;;;;5052031;28;20047;-69
2021/12/29 08:16:33;;;;;;;130.50;27.67;;;7.50;99.90;;;;;;5054293;28;20128;-69
2021/12/29 08:18:58;;;;;;;166.10;29.15;;;7.30;99.90;;;;;;5053557;28;20486;-69
2021/12/29 08:21:24;;;;;;;131.90;26.05;;;7.40;99.90;;;;;;5053691;28;20051;-69
2021/12/29 08:23:50;;;;;;;148.07;28.95;;;7.30;99.90;;;;;;5053290;28;20449;-68
2021/12/29 08:26:16;;;;;;;129.93;27.17;;;7.10;99.90;;;;;;5053860;28;20137;-69
2021/12/29 08:28:41;;;;;;;134.57;28.13;;;7.60;99.90;;;;;;5054072;28;20045;-69
2021/12/29 08:31:07;;;;;;;149.20;27.58;;;7.30;99.90;;;;;;5052875;28;20041;-70
2021/12/29 08:33:37;;;;;;;158.02;27.25;;;7.30;99.90;;;;;;5053415;28;20040;-68
2021/12/29 08:36:06;;;;;;;118.88;25.15;;;7.40;99.90;;;;;;5053614;28;20045;-70
2021/12/29 08:38:33;;;;;;;98.55;23.73;;;7.30;99.90;;;;;;5052357;28;20049;-70
2021/12/29 08:40:58;;;;;;;125.75;26.15;;;7.40;99.90;;;;;;5053112;28;20052;-70
2021/12/29 08:43:24;;;;;;;151.15;27.77;;;7.30;99.90;;;;;;5053698;28;20040;-69
2021/12/29 08:45:50;;;;;;;143.43;26.35;;;7.30;99.90;;;;;;5053522;28;20041;-70
2021/12/29 08:48:16;;;;;;;107.05;23.90;;;7.30;99.90;;;;;;5048092;28;20041;-70
2021/12/29 08:50:42;;;;;;;125.35;24.58;;;7.40;99.90;;;;;;5015857;28;20046;-70
2021/12/29 08:53:12;;;;;;;93.32;22.58;;;7.40;99.90;;;;;;5033290;28;20041;-70
2021/12/29 08:55:44;;;;;;;125.68;25.15;;;7.50;99.90;;;;;;5033278;28;20081;-69
2021/12/29 08:58:10;;;;;;;127.03;25.52;;;7.40;99.90;;;;;;5040907;28;20056;-68
2021/12/29 09:00:36;;;;;;;132.73;25.25;;;7.30;99.90;;;;;;5052036;28;20128;-68
2021/12/29 09:03:02;;;;;;;101.45;24.08;;;7.30;99.90;;;;;;5051953;28;20187;-68
2021/12/29 09:05:28;;;;;;;154.13;27.77;;;7.40;99.90;;;;;;5051815;28;20041;-69
2021/12/29 09:07:53;;;;;;;125.88;25.65;;;7.40;99.90;;;;;;5051635;28;20051;-67
2021/12/29 09:10:20;;;;;;;173.95;27.50;;;7.40;99.90;;;;;;5047713;28;20041;-68
2021/12/29 09:12:51;;;;;;;169.23;28.50;;;7.40;99.90;;;;;;5033086;28;20538;-69
2021/12/29 09:15:21;;;;;;;139.70;26.77;;;7.40;99.90;;;;;;5050228;28;20514;-70
2021/12/29 09:17:46;;;;;;;150.20;25.25;;;7.50;99.90;;;;;;5051331;28;20059;-69
2021/12/29 09:20:25;;;;;;;131.02;24.27;;;7.50;99.90;;;;;;5051794;28;20057;-69
2021/12/29 09:22:51;;;;;;;136.90;24.45;;;7.50;99.90;;;;;;5053002;28;20045;-69
2021/12/29 09:25:20;;;;;;;116.75;23.17;;;7.40;99.90;;;;;;5050916;28;20045;-69
2021/12/29 09:27:49;;;;;;;;;;;7.40;99.90;;;;;;5051782;28;20359;-69
2021/12/29 09:30:22;;;;;;;156.45;24.67;;;7.50;99.90;;;;;;5047587;28;20289;-69
2021/12/29 09:32:53;;;;;;;121.72;23.70;;;8.30;99.90;;;;;;5032583;28;20041;-68
2021/12/29 09:35:20;;;;;;;171.45;24.20;;;7.50;99.90;;;;;;5032703;28;20432;-69
2021/12/29 09:37:47;;;;;;;121.95;23.75;;;7.50;99.90;;;;;;5052068;28;20099;-68
2021/12/29 09:40:15;;;;;;;108.30;20.63;;;7.60;99.90;;;;;;5051462;28;20102;-69
2021/12/29 09:42:40;;;;;;;;;;;7.60;99.90;;;;;;5051511;28;20049;-69
2021/12/29 09:45:07;;;;;;;113.25;20.58;;;7.60;99.90;;;;;;5051541;28;19932;-69
2021/12/29 09:47:34;;;;;;;102.95;20.55;;;7.60;99.90;;;;;;5050932;28;20041;-69
2021/12/29 09:50:00;;;;;;;132.23;23.10;;;7.60;99.90;;;;;;5052450;28;20033;-69
2021/12/29 09:52:29;;;;;;;107.72;19.48;;;7.60;99.90;;;;;;5051345;28;20072;-69
2021/12/29 09:54:56;;;;;;;109.82;20.25;;;7.60;99.90;;;;;;5052392;28;20052;-69
2021/12/29 09:57:22;;;;;;;116.20;18.20;;;7.70;99.90;;;;;;5033592;28;20049;-68
2021/12/29 09:59:48;;;;;;;98.40;18.85;;;7.70;99.90;;;;;;5051993;28;20105;-69
2021/12/29 10:02:14;;;;;;;96.43;17.63;;;7.70;99.90;;;;;;5051818;28;20052;-67
2021/12/29 10:04:46;;;;;;;140.27;20.52;;;7.70;99.90;;;;;;5050652;28;20049;-68
2021/12/29 10:07:20;;;;;;;108.80;19.35;;;7.70;99.90;;;;;;5051898;28;20041;-69
2021/12/29 10:09:49;;;;;;;127.25;21.13;;;7.70;99.90;;;;;;5050062;28;20508;-69
2021/12/29 10:12:21;;;;;;;85.40;18.65;;;7.70;99.90;;;;;;5033136;28;20797;-68
2021/12/29 10:14:57;;;;;;;122.25;21.23;;;7.80;99.90;;;;;;5051686;28;20049;-69
2021/12/29 10:17:27;;;;;;;94.25;19.42;;;7.80;99.90;;;;;;5065216;28;20053;-70
2021/12/29 10:20:08;;;;;;;88.75;18.10;;;7.80;99.90;;;;;;5050370;28;20145;-70
2021/12/29 10:22:34;;;;;;;72.78;16.35;;;7.80;99.90;;;;;;5051885;28;20111;-69
2021/12/29 10:25:12;;;;;;;85.25;17.27;;;8.10;99.90;;;;;;5050302;28;20134;-68
2021/12/29 10:27:40;;;;;;;63.97;15.93;;;7.90;99.90;;;;;;5051432;28;20088;-70
2021/12/29 10:30:24;;;;;;;85.30;17.60;;;7.90;99.90;;;;;;5033721;28;20064;-68
2021/12/29 10:32:51;;;;;;;81.22;16.25;;;7.90;99.90;;;;;;5051615;28;20052;-70
2021/12/29 10:35:28;;;;;;;70.22;16.20;;;7.90;99.90;;;;;;5050088;28;20045;-68
2021/12/29 10:38:09;;;;;;;67.82;16.80;;;7.90;99.90;;;;;;5050993;28;20056;-69
2021/12/29 10:40:35;;;;;;;82.55;17.85;;;7.90;99.90;;;;;;5050644;28;20099;-69
2021/12/29 10:43:05;;;;;;;76.03;17.27;;;7.90;99.90;;;;;;5049279;28;20479;-68
2021/12/29 10:45:37;;;;;;;68.55;16.70;;;7.90;99.90;;;;;;5049214;28;20519;-69
2021/12/29 10:48:21;;;;;;;74.78;17.30;;;7.90;99.90;;;;;;5049478;28;20045;-69
2021/12/29 10:51:08;;;;;;;47.88;14.93;;;8.00;99.90;;;;;;5050706;28;20071;-68
2021/12/29 10:53:37;;;;;;;75.72;17.77;;;7.90;99.90;;;;;;5033530;28;20144;-69
2021/12/29 10:56:04;;;;;;;116.78;19.20;;;8.00;99.90;;;;;;5050508;28;20480;-69
2021/12/29 10:58:34;;;;;;;59.40;16.73;;;8.00;99.90;;;;;;5051131;28;20514;-70
2021/12/29 11:01:15;;;;;;;53.83;15.80;;;8.10;99.90;;;;;;5050926;28;20052;-70
2021/12/29 11:03:58;;;;;;;98.65;18.98;;;8.60;99.90;;;;;;5031775;28;20137;-68
2021/12/29 11:06:26;;;;;;;50.15;15.20;;;8.10;99.90;;;;;;5030228;28;20056;-69
2021/12/29 11:09:01;;;;;;;49.80;15.95;;;8.10;99.90;;;;;;5032401;28;20037;-69
2021/12/29 11:11:39;;;;;;;45.92;14.00;;;8.10;99.90;;;;;;5051164;28;20569;-70
2021/12/29 11:14:17;;;;;;;49.28;13.98;;;8.10;99.90;;;;;;5050324;28;20041;-69
2021/12/29 11:16:45;;;;;;;43.22;13.20;;;8.10;99.90;;;;;;5033224;28;20449;-69
2021/12/29 11:19:11;;;;;;;36.63;13.25;;;8.10;99.90;;;;;;5051801;28;20045;-69
2021/12/29 11:21:40;;;;;;;40.22;12.80;;;8.10;99.90;;;;;;5052456;28;20096;-69
2021/12/29 11:24:20;;;;;;;48.67;13.55;;;8.10;99.90;;;;;;5055089;28;20121;-68
2021/12/29 11:26:49;;;;;;;35.90;12.30;;;8.00;99.90;;;;;;5054922;28;20453;-69
2021/12/29 11:29:17;;;;;;;42.58;12.98;;;8.00;99.90;;;;;;5055136;28;20045;-68
2021/12/29 11:31:56;;;;;;;48.30;14.25;;;8.00;99.90;;;;;;5052296;28;20051;-69
2021/12/29 11:34:27;;;;;;;59.38;14.48;;;8.00;99.90;;;;;;5053678;28;20053;-69
2021/12/29 11:37:07;;;;;;;43.97;13.50;;;8.00;99.90;;;;;;5054608;28;20120;-69
2021/12/29 11:39:35;;;;;;;44.17;13.00;;;8.00;99.90;;;;;;5053456;28;20055;-69
2021/12/29 11:42:02;;;;;;;40.45;13.48;;;8.10;99.90;;;;;;5053001;28;20085;-70
2021/12/29 11:44:28;;;;;;;82.70;16.85;;;8.00;99.90;;;;;;5053441;28;20033;-68
2021/12/29 11:46:56;;;;;;;73.40;16.05;;;8.10;99.90;;;;;;5054047;28;20405;-69
2021/12/29 11:49:22;;;;;;;62.15;14.48;;;8.10;99.90;;;;;;5053499;28;20057;-69
2021/12/29 11:52:01;;;;;;;55.17;14.05;;;8.10;99.90;;;;;;5053556;28;20053;-69
2021/12/29 11:55:06;;;;;;;69.18;15.55;;;8.10;99.90;;;;;;5054251;28;20441;-69
2021/12/29 11:57:34;;;;;;;49.17;13.70;;;8.10;99.90;;;;;;5053551;28;20051;-69
2021/12/29 12:00:12;;;;;;;45.05;13.60;;;8.10;99.90;;;;;;5036691;28;20120;-68
2021/12/29 12:02:40;;;;;;;43.80;12.95;;;8.10;99.90;;;;;;5051745;28;20041;-69
2021/12/29 12:05:10;;;;;;;35.10;13.55;;;8.30;99.90;;;;;;5053915;28;20051;-69
2021/12/29 12:07:39;;;;;;;41.05;14.10;;;8.10;99.90;;;;;;5053986;28;20041;-69
2021/12/29 12:10:23;;;;;;;46.70;14.43;;;8.10;99.90;;;;;;5052873;28;20063;-69
2021/12/29 12:12:52;;;;;;;46.03;14.02;;;8.10;99.90;;;;;;5035518;28;20108;-69
2021/12/29 12:15:32;;;;;;;42.80;12.85;;;8.10;99.90;;;;;;5053527;28;20393;-68
2021/12/29 12:18:06;;;;;;;37.72;12.13;;;8.10;99.90;;;;;;5053915;28;20048;-69
2021/12/29 12:20:40;;;;;;;38.25;12.15;;;8.10;99.90;;;;;;5052006;28;20492;-69
2021/12/29 12:23:15;;;;;;;53.92;13.90;;;8.10;99.90;;;;;;5025862;28;20066;-69
2021/12/29 12:25:41;;;;;;;44.95;14.38;;;8.10;99.90;;;;;;5015960;28;20072;-69
2021/12/29 12:28:21;;;;;;;56.45;15.05;;;8.10;99.90;;;;;;5037065;28;20568;-71
2021/12/29 12:30:51;;;;;;;39.38;12.43;;;8.20;99.90;;;;;;5052954;28;20454;-68
2021/12/29 12:33:27;;;;;;;40.10;12.23;;;8.20;99.90;;;;;;5052812;28;20198;-68
2021/12/29 12:35:54;;;;;;;46.30;13.27;;;8.20;99.90;;;;;;5052295;28;20103;-69
2021/12/29 12:38:27;;;;;;;45.63;12.98;;;8.20;99.90;;;;;;5051620;28;20045;-68
2021/12/29 12:41:08;;;;;;;45.30;12.82;;;8.20;99.90;;;;;;5056382;28;20188;-69
2021/12/29 12:43:36;;;;;;;40.88;12.18;;;8.30;99.90;;;;;;5053781;28;20045;-68
2021/12/29 12:46:02;;;;;;;58.83;13.32;;;8.30;99.90;;;;;;5061086;28;20259;-69